Time;durP1;ratioP1;P1;durP2;ratioP2;P2;SDS_P1;SDS_P2;PMS_P1;PMS_P2;Temp;Humidity;BMP_temperature;BMP_pressure;BME280_temperature;BME280_humidity;BME280_pressure;Samples;Min_cycle;Max_cycle;Signal;HPM_P1;HPM_P2
2022/06/29 00:00:29;;;;;;;6.88;2.22;;;;;;;17.04;64.14;101529.72;5068938;28;20493;-76
2022/06/29 00:02:56;;;;;;;7.40;2.55;;;;;;;17.03;64.26;101523.56;5072777;28;20471;-77
2022/06/29 00:05:26;;;;;;;4.97;2.58;;;;;;;17.03;64.04;101525.34;5071157;28;20041;-76
2022/06/29 00:07:54;;;;;;;5.53;2.65;;;;;;;17.04;64.37;101519.94;5069887;28;20044;-76
2022/06/29 00:10:23;;;;;;;4.22;2.15;;;;;;;17.04;64.43;101517.28;5071881;28;20827;-76
2022/06/29 00:12:50;;;;;;;3.10;2.28;;;;;;;17.08;64.14;101521.53;5070904;28;20082;-77
2022/06/29 00:15:20;;;;;;;4.63;2.67;;;;;;;17.08;64.22;101515.34;5073342;28;20075;-79
2022/06/29 00:17:49;;;;;;;5.82;2.60;;;;;;;17.09;63.88;101511.75;5070564;28;20057;-78
2022/06/29 00:20:16;;;;;;;5.93;2.78;;;;;;;17.12;63.81;101508.94;5072435;28;20844;-79
2022/06/29 00:22:46;;;;;;;3.65;2.80;;;;;;;17.15;63.45;101510.56;5070465;28;20045;-81
2022/06/29 00:25:15;;;;;;;4.55;2.80;;;;;;;17.13;63.38;101515.97;5072577;28;20048;-79
2022/06/29 00:27:43;;;;;;;3.42;2.63;;;;;;;17.14;63.32;101506.22;5071327;28;20079;-80
2022/06/29 00:30:12;;;;;;;5.03;2.70;;;;;;;17.15;63.37;101505.25;5068905;28;20041;-80
2022/06/29 00:32:40;;;;;;;5.00;2.70;;;;;;;17.17;63.19;101508.69;5070635;28;20100;-80
2022/06/29 00:35:08;;;;;;;6.05;2.80;;;;;;;17.20;63.17;101500.56;5070799;28;20040;-80
2022/06/29 00:37:35;;;;;;;4.05;2.75;;;;;;;17.15;62.91;101499.91;5071042;28;20069;-80
2022/06/29 00:40:04;;;;;;;4.35;2.70;;;;;;;17.10;62.89;101496.63;5071621;28;20120;-79
2022/06/29 00:42:32;;;;;;;3.60;2.70;;;;;;;17.07;63.15;101487.84;5071935;28;20041;-79
2022/06/29 00:44:59;;;;;;;3.60;2.63;;;;;;;17.08;63.22;101483.38;5071739;28;20065;-80
2022/06/29 00:47:27;;;;;;;3.90;2.58;;;;;;;17.07;63.48;101494.97;5070194;28;20060;-78
2022/06/29 00:49:54;;;;;;;5.55;2.90;;;;;;;17.05;63.54;101492.38;5072782;28;20677;-78
2022/06/29 00:52:25;;;;;;;4.97;2.95;;;;;;;17.01;63.51;101493.47;5078055;28;20075;-78
2022/06/29 00:55:06;;;;;;;4.43;2.65;;;;;;;16.94;63.51;101491.16;5069351;28;20605;-78
2022/06/29 00:57:42;;;;;;;3.60;2.90;;;;;;;16.91;63.83;101492.97;5070821;28;20051;-80
2022/06/29 01:00:10;;;;;;;5.55;3.00;;;;;;;16.87;64.04;101483.44;5071301;28;20041;-79
2022/06/29 01:02:38;;;;;;;5.40;3.10;;;;;;;16.80;64.19;101483.78;5071743;28;20037;-79
2022/06/29 01:05:06;;;;;;;3.15;2.80;;;;;;;16.76;64.46;101485.72;5073237;28;20085;-79
2022/06/29 01:07:34;;;;;;;6.07;3.10;;;;;;;16.74;64.34;101491.09;5068510;28;20049;-79
2022/06/29 01:10:03;;;;;;;6.13;3.20;;;;;;;16.73;64.85;101481.41;5067107;28;20040;-79
2022/06/29 01:12:31;;;;;;;4.88;3.08;;;;;;;16.72;64.63;101477.03;5071355;28;20457;-78
2022/06/29 01:14:59;;;;;;;9.10;3.45;;;;;;;16.73;64.72;101468.09;5074113;28;20037;-77
2022/06/29 01:17:26;;;;;;;4.40;3.17;;;;;;;16.72;64.58;101471.69;5071176;28;20049;-78
2022/06/29 01:19:54;;;;;;;8.32;3.30;;;;;;;16.74;64.52;101471.63;5070739;28;20562;-80
2022/06/29 01:22:25;;;;;;;8.38;3.40;;;;;;;16.74;64.33;101479.59;5070556;28;20033;-79
2022/06/29 01:24:53;;;;;;;6.88;3.42;;;;;;;16.72;64.45;101476.13;5070896;28;20048;-81
2022/06/29 01:27:23;;;;;;;4.45;3.60;;;;;;;16.71;64.31;101477.94;5070521;28;20124;-80
2022/06/29 01:29:50;;;;;;;5.82;4.20;;;;;;;16.71;64.61;101474.41;5070196;28;20041;-80
2022/06/29 01:32:19;;;;;;;5.97;4.40;;;;;;;16.70;64.25;101476.22;5065659;28;20052;-80
2022/06/29 01:34:46;;;;;;;6.72;4.40;;;;;;;16.72;64.46;101471.69;5070367;28;20697;-78
2022/06/29 01:37:14;;;;;;;6.32;4.78;;;;;;;16.69;64.16;101469.16;5068541;28;20052;-80
2022/06/29 01:39:42;;;;;;;6.13;5.22;;;;;;;16.69;64.18;101465.63;5075554;28;20124;-81
2022/06/29 01:42:09;;;;;;;5.32;4.82;;;;;;;16.65;64.25;101470.22;5072412;28;20111;-81
2022/06/29 01:44:37;;;;;;;6.18;4.95;;;;;;;16.63;64.28;101471.25;5073826;28;20120;-80
2022/06/29 01:47:04;;;;;;;8.23;4.70;;;;;;;16.60;64.49;101462.44;5072329;28;20041;-77
2022/06/29 01:49:32;;;;;;;7.57;4.82;;;;;;;16.62;64.52;101459.75;5069751;28;20093;-77
2022/06/29 01:51:59;;;;;;;6.25;4.75;;;;;;;16.63;64.44;101464.13;5074786;28;20041;-75
2022/06/29 01:54:27;;;;;;;5.28;4.65;;;;;;;16.63;64.48;101465.91;5072689;28;20045;-78
2022/06/29 01:56:54;;;;;;;6.57;5.05;;;;;;;16.64;64.37;101455.19;5074207;28;20128;-80
2022/06/29 01:59:21;;;;;;;8.30;4.60;;;;;;;16.67;64.37;101451.53;5072713;28;20116;-80
2022/06/29 02:01:48;;;;;;;9.73;5.22;;;;;;;16.68;64.13;101451.47;5069780;28;20104;-80
2022/06/29 02:04:16;;;;;;;7.15;4.95;;;;;;;16.67;64.09;101452.38;5072275;28;21911;-81
2022/06/29 02:06:44;;;;;;;5.68;5.13;;;;;;;16.68;64.10;101448.78;5069964;28;20114;-80
2022/06/29 02:09:12;;;;;;;5.60;4.97;;;;;;;16.67;64.20;101446.22;5073280;28;20129;-82
2022/06/29 02:11:40;;;;;;;7.20;4.50;;;;;;;16.70;64.33;101440.72;5073620;28;20666;-79
2022/06/29 02:14:07;;;;;;;7.63;4.88;;;;;;;16.73;64.04;101445.91;5073342;28;20059;-77
2022/06/29 02:16:35;;;;;;;6.60;4.97;;;;;;;16.75;63.82;101442.25;5071877;28;20091;-78
2022/06/29 02:19:03;;;;;;;6.55;5.10;;;;;;;16.76;64.05;101441.31;5073658;28;20052;-76
2022/06/29 02:21:31;;;;;;;7.35;5.68;;;;;;;16.78;63.82;101438.59;5072812;28;20071;-76
2022/06/29 02:23:58;;;;;;;8.52;5.43;;;;;;;16.76;63.83;101438.66;5072955;28;20487;-76
2022/06/29 02:26:25;;;;;;;9.75;7.07;;;;;;;16.73;63.73;101441.47;5072958;28;20111;-76
2022/06/29 02:28:52;;;;;;;8.18;6.40;;;;;;;16.71;63.78;101434.47;5072872;28;20080;-76
2022/06/29 02:36:51;;;;;;;6.78;6.05;;;;;;;16.60;63.76;101433.19;5070358;28;20504;-78
2022/06/29 02:39:18;;;;;;;6.97;5.88;;;;;;;16.54;63.95;101438.78;5073213;28;20781;-78
2022/06/29 02:41:45;;;;;;;10.70;5.75;;;;;;;16.48;64.05;101424.91;5072400;28;20563;-75
2022/06/29 02:44:12;;;;;;;7.50;5.75;;;;;;;16.41;64.22;101438.50;5072465;28;20110;-78
2022/06/29 02:46:40;;;;;;;8.98;5.90;;;;;;;16.35;64.33;101441.41;5073093;28;20542;-76
2022/06/29 02:49:07;;;;;;;7.63;6.63;;;;;;;16.30;64.58;101435.44;5071946;28;20033;-77
2022/06/29 02:51:35;;;;;;;7.18;6.43;;;;;;;16.24;64.76;101435.72;5072817;28;20040;-75
2022/06/29 02:54:04;;;;;;;7.57;5.75;;;;;;;16.18;65.30;101426.22;5072083;28;20741;-76
2022/06/29 02:56:31;;;;;;;7.20;5.85;;;;;;;16.11;65.44;101422.97;5071946;28;20547;-78
2022/06/29 02:58:58;;;;;;;9.63;6.22;;;;;;;16.06;65.69;101424.97;5071947;28;20048;-78
2022/06/29 03:01:26;;;;;;;6.35;5.50;;;;;;;16.01;65.83;101424.31;5072868;28;20136;-77
2022/06/29 03:03:53;;;;;;;7.53;5.68;;;;;;;15.95;66.03;101429.88;5072364;28;20507;-78
2022/06/29 03:06:20;;;;;;;6.72;5.78;;;;;;;15.91;66.07;101423.00;5071040;28;20103;-77
2022/06/29 03:08:47;;;;;;;7.15;5.28;;;;;;;15.87;66.20;101416.06;5073234;28;20124;-77
2022/06/29 03:11:14;;;;;;;6.55;5.10;;;;;;;15.87;66.46;101410.75;5073295;28;20591;-78
2022/06/29 03:13:42;;;;;;;6.68;5.13;;;;;;;15.84;66.41;101422.38;5071340;28;20512;-77
2022/06/29 03:16:09;;;;;;;6.68;4.95;;;;;;;15.77;66.50;101407.63;5071448;28;20076;-79
2022/06/29 03:18:36;;;;;;;6.82;5.28;;;;;;;15.73;66.53;101408.66;5072152;28;20045;-79
2022/06/29 03:21:03;;;;;;;5.57;4.68;;;;;;;15.69;66.99;101411.44;5074456;28;20037;-79
2022/06/29 03:23:30;;;;;;;5.93;4.97;;;;;;;15.65;67.10;101401.00;5074252;28;20647;-81
2022/06/29 03:25:58;;;;;;;7.50;5.25;;;;;;;15.59;67.49;101402.13;5078147;28;20855;-80
2022/06/29 03:28:26;;;;;;;8.18;5.15;;;;;;;15.53;67.57;101397.94;5078979;28;20443;-80
2022/06/29 03:30:53;;;;;;;7.35;5.70;;;;;;;15.48;67.54;101394.63;5077105;28;20483;-80
2022/06/29 03:33:21;;;;;;;12.75;5.85;;;;;;;15.46;67.80;101393.81;5079373;28;20897;-82
2022/06/29 03:35:49;;;;;;;6.30;5.30;;;;;;;15.44;67.59;101389.50;5074822;28;20045;-80
2022/06/29 03:38:16;;;;;;;10.75;5.50;;;;;;;15.37;67.52;101389.75;5072189;28;20131;-79
2022/06/29 03:40:43;;;;;;;6.13;5.47;;;;;;;15.36;67.62;101395.97;5072915;28;20047;-79
2022/06/29 03:43:10;;;;;;;8.32;5.78;;;;;;;15.32;67.62;101381.13;5071815;28;20029;-78
2022/06/29 03:45:38;;;;;;;7.55;5.60;;;;;;;15.29;67.93;101391.88;5071136;28;20060;-79
2022/06/29 03:48:06;;;;;;;6.75;5.47;;;;;;;15.26;68.25;101389.31;5071578;28;20115;-79
2022/06/29 03:50:34;;;;;;;5.78;5.28;;;;;;;15.24;68.50;101390.31;5071488;28;20049;-79
2022/06/29 03:53:01;;;;;;;6.65;5.70;;;;;;;15.21;68.36;101396.63;5072776;28;20827;-79
2022/06/29 03:55:28;;;;;;;7.47;5.28;;;;;;;15.22;68.63;101391.25;5070408;28;20044;-79
2022/06/29 03:57:55;;;;;;;7.88;5.72;;;;;;;15.26;68.80;101396.44;5072600;28;20045;-79
2022/06/29 04:00:23;;;;;;;7.63;5.18;;;;;;;15.27;69.63;101398.19;5070485;28;20504;-78
2022/06/29 04:02:50;;;;;;;9.75;4.97;;;;;;;15.29;69.92;101394.53;5072533;28;20049;-78
2022/06/29 04:05:17;;;;;;;7.05;4.70;;;;;;;15.31;70.28;101391.81;5071501;28;20578;-79
2022/06/29 04:07:44;;;;;;;6.47;5.55;;;;;;;15.32;70.30;101385.56;5068496;28;20052;-80
2022/06/29 04:10:11;;;;;;;7.35;5.43;;;;;;;15.32;70.48;101388.22;5071328;28;20076;-80
2022/06/29 04:12:39;;;;;;;6.65;5.45;;;;;;;15.33;70.53;101388.16;5071803;28;20079;-81
2022/06/29 04:15:07;;;;;;;5.40;4.88;;;;;;;15.37;70.53;101383.59;5071550;28;20092;-80
2022/06/29 04:17:35;;;;;;;6.55;5.30;;;;;;;15.40;70.59;101382.59;5071696;28;20041;-79
2022/06/29 04:21:05;;;;;;;5.50;5.00;;;;;;;15.45;70.64;101385.94;5071898;28;20037;-80
2022/06/29 04:23:01;;;;;;;7.05;5.15;;;;;;;15.63;69.74;101389.56;5073241;28;20037;-76
2022/06/29 04:25:29;;;;;;;5.47;5.00;;;;;;;15.80;69.89;101383.53;5073185;28;20063;-78
2022/06/29 04:27:57;;;;;;;5.88;4.28;;;;;;;15.81;69.91;101379.94;5072725;28;20045;-77
2022/06/29 04:30:24;;;;;;;7.10;4.70;;;;;;;15.88;69.83;101385.91;5071243;28;20051;-76
2022/06/29 04:32:52;;;;;;;7.75;4.60;;;;;;;15.94;69.30;101383.84;5063013;28;20092;-76
2022/06/29 04:35:20;;;;;;;5.20;4.05;;;;;;;15.98;69.17;101377.44;5066714;28;20065;-76
2022/06/29 04:37:48;;;;;;;7.32;3.95;;;;;;;16.05;68.96;101372.72;5069650;28;20053;-76
2022/06/29 04:40:15;;;;;;;6.45;3.97;;;;;;;16.15;68.50;101366.03;5067299;28;20033;-77
2022/06/29 04:42:42;;;;;;;5.55;3.97;;;;;;;16.26;68.25;101368.22;5068542;28;20475;-79
2022/06/29 04:46:19;;;;;;;6.47;3.17;;;;;;;16.42;68.81;101365.72;5070649;28;20076;-78
2022/06/29 04:48:01;;;;;;;5.45;3.60;;;;;;;16.75;67.83;101365.03;5071489;28;20045;-79
2022/06/29 04:50:29;;;;;;;5.15;3.42;;;;;;;16.97;66.97;101364.03;5071420;28;20048;-79
2022/06/29 04:52:56;;;;;;;5.15;3.38;;;;;;;17.13;66.51;101360.63;5071696;28;20459;-79
2022/06/29 04:55:25;;;;;;;5.88;3.47;;;;;;;17.33;66.02;101363.16;5071246;28;20045;-79
2022/06/29 04:57:53;;;;;;;6.25;3.78;;;;;;;17.45;65.39;101371.47;5071839;28;20153;-79
2022/06/29 05:00:20;;;;;;;4.38;3.10;;;;;;;17.52;64.70;101364.88;5070722;28;20052;-80
2022/06/29 05:02:47;;;;;;;5.78;3.03;;;;;;;17.59;64.55;101363.63;5071142;28;20091;-79
2022/06/29 05:05:14;;;;;;;5.20;3.45;;;;;;;17.64;64.40;101364.25;5070913;28;20099;-80
2022/06/29 05:07:42;;;;;;;5.80;3.72;;;;;;;17.70;64.58;101366.59;5070283;28;20037;-79
2022/06/29 05:10:09;;;;;;;5.07;2.70;;;;;;;17.79;64.03;101364.38;5070181;28;20049;-80
2022/06/29 05:12:38;;;;;;;5.03;3.58;;;;;;;17.88;64.11;101363.88;5069113;28;20041;-79
2022/06/29 05:15:09;;;;;;;9.27;3.22;;;;;;;18.10;63.78;101354.78;5067335;28;20043;-79
2022/06/29 05:17:37;;;;;;;6.53;3.38;;;;;;;18.32;62.86;101357.13;5069786;28;20048;-79
2022/06/29 05:20:08;;;;;;;5.70;3.47;;;;;;;18.71;61.74;101363.91;5066283;28;20132;-80
2022/06/29 05:22:36;;;;;;;12.73;3.20;;;;;;;20.26;57.91;101359.25;5070156;28;20037;-80
2022/06/29 05:25:05;;;;;;;11.98;4.05;;;;;;;20.81;55.99;101354.03;5070932;28;20029;-79
2022/06/29 05:27:33;;;;;;;9.20;4.57;;;;;;;21.86;53.37;101355.88;5070725;28;20045;-80
2022/06/29 05:30:00;;;;;;;8.02;3.60;;;;;;;23.91;49.04;101348.88;5068070;28;20041;-80
2022/06/29 05:32:28;;;;;;;10.57;4.50;;;;;;;25.64;44.59;101343.81;5029284;28;20053;-79
2022/06/29 05:34:56;;;;;;;8.20;4.10;;;;;;;26.92;41.45;101342.41;5063077;28;20041;-79
2022/06/29 05:37:23;;;;;;;13.90;5.75;;;;;;;28.01;39.40;101336.66;5060926;28;20045;-78
2022/06/29 05:39:50;;;;;;;13.43;6.05;;;;;;;29.00;37.37;101339.69;5061112;28;20609;-79
2022/06/29 05:42:18;;;;;;;15.23;5.22;;;;;;;29.80;35.58;101332.47;5058377;28;20049;-80
2022/06/29 05:44:46;;;;;;;10.30;4.80;;;;;;;30.32;34.03;101331.53;5060832;28;20770;-80
2022/06/29 05:47:16;;;;;;;11.75;3.97;;;;;;;30.86;33.34;101333.03;5056701;28;20144;-79
2022/06/29 05:49:44;;;;;;;6.13;3.20;;;;;;;31.34;32.15;101328.59;5055925;28;20568;-79
2022/06/29 05:52:11;;;;;;;12.50;3.17;;;;;;;31.64;31.57;101337.09;5062671;28;20116;-80
2022/06/29 05:54:39;;;;;;;8.10;3.20;;;;;;;31.92;30.86;101331.25;5056269;28;20042;-78
2022/06/29 05:57:06;;;;;;;4.78;2.80;;;;;;;32.21;30.29;101332.47;5065427;28;20072;-80
2022/06/29 05:59:34;;;;;;;8.98;3.05;;;;;;;32.45;30.32;101336.16;5066185;28;20783;-80
2022/06/29 06:02:01;;;;;;;5.22;2.83;;;;;;;32.85;30.14;101333.34;5064267;28;20065;-80
2022/06/29 06:04:28;;;;;;;11.07;2.45;;;;;;;33.29;29.49;101338.91;5062874;28;20052;-80
2022/06/29 06:06:55;;;;;;;12.38;2.85;;;;;;;33.71;29.29;101333.06;5060060;28;20057;-79
2022/06/29 06:09:26;;;;;;;13.07;2.78;;;;;;;34.08;28.52;101339.50;5068322;28;20183;-81
2022/06/29 06:11:55;;;;;;;3.55;2.30;;;;;;;33.92;27.85;101335.09;5071406;28;20037;-81
2022/06/29 06:14:22;;;;;;;9.15;2.80;;;;;;;32.90;29.65;101336.38;5067106;28;20044;-81
2022/06/29 06:16:50;;;;;;;11.65;3.17;;;;;;;30.97;31.98;101333.56;5070725;28;20108;-80
2022/06/29 06:19:17;;;;;;;15.95;2.97;;;;;;;29.07;34.84;101332.59;5059865;28;20092;-79
2022/06/29 06:21:44;;;;;;;10.30;2.90;;;;;;;27.45;37.20;101340.28;5068161;28;20052;-80
2022/06/29 06:24:12;;;;;;;6.20;2.88;;;;;;;26.04;39.52;101345.72;5071315;28;20118;-78
2022/06/29 06:26:39;;;;;;;10.98;3.08;;;;;;;24.94;42.05;101338.88;5070573;28;20041;-78
2022/06/29 06:29:06;;;;;;;8.40;3.00;;;;;;;24.07;43.77;101345.84;5070757;28;20118;-79
2022/06/29 06:31:34;;;;;;;7.60;3.28;;;;;;;23.35;45.89;101342.44;5072992;28;20041;-79
2022/06/29 06:34:02;;;;;;;9.63;3.30;;;;;;;22.83;47.38;101349.91;5052774;28;20456;-78
2022/06/29 06:36:30;;;;;;;5.65;3.15;;;;;;;22.39;49.10;101338.72;5064149;28;20049;-78
2022/06/29 06:38:59;;;;;;;6.15;2.78;;;;;;;22.01;49.57;101345.03;5074443;28;20132;-78
2022/06/29 06:41:26;;;;;;;7.15;3.50;;;;;;;21.67;50.45;101340.22;5073375;28;20531;-78
2022/06/29 06:44:00;;;;;;;10.93;3.67;;;;;;;21.37;51.64;101343.13;5072980;28;20072;-78
2022/06/29 06:46:28;;;;;;;9.55;3.65;;;;;;;21.09;52.15;101345.88;5068864;28;20514;-79
2022/06/29 06:48:56;;;;;;;7.63;3.38;;;;;;;20.92;53.02;101338.09;5069461;28;20562;-78
2022/06/29 06:51:23;;;;;;;6.25;3.30;;;;;;;20.75;54.25;101337.38;5071781;28;20441;-78
2022/06/29 06:53:51;;;;;;;8.70;3.97;;;;;;;20.70;55.06;101341.28;5072695;28;20068;-79
2022/06/29 06:56:19;;;;;;;10.25;3.80;;;;;;;20.67;55.16;101347.72;5059194;28;20067;-78
2022/06/29 06:58:46;;;;;;;7.57;3.35;;;;;;;20.75;55.05;101337.38;5064656;28;20415;-77
2022/06/29 07:01:21;;;;;;;10.82;3.72;;;;;;;20.77;55.50;101330.13;5073065;28;20041;-78
2022/06/29 07:03:49;;;;;;;6.18;3.22;;;;;;;20.82;55.72;101335.16;5071620;28;20041;-77
2022/06/29 07:06:16;;;;;;;4.93;3.53;;;;;;;20.78;56.07;101336.31;5069066;28;20059;-79
2022/06/29 07:08:46;;;;;;;8.52;3.50;;;;;;;20.73;56.04;101341.09;5060132;28;20900;-76
2022/06/29 07:11:13;;;;;;;7.18;3.47;;;;;;;20.75;55.99;101340.06;5074067;28;20049;-78
2022/06/29 07:13:40;;;;;;;6.50;3.40;;;;;;;20.81;55.99;101335.28;5072743;28;20080;-78
2022/06/29 07:16:10;;;;;;;8.77;3.33;;;;;;;20.90;56.25;101340.88;5058710;28;20041;-79
2022/06/29 07:18:38;;;;;;;10.10;3.63;;;;;;;20.94;55.78;101337.03;5058557;28;20042;-78
2022/06/29 07:21:05;;;;;;;10.15;3.55;;;;;;;21.03;55.76;101332.03;5054145;28;20842;-80
2022/06/29 07:23:33;;;;;;;11.82;3.55;;;;;;;21.08;56.32;101329.88;5072389;28;20049;-79
2022/06/29 07:26:00;;;;;;;8.88;3.50;;;;;;;21.19;56.22;101345.25;5073524;28;20037;-79
2022/06/29 07:28:27;;;;;;;9.13;3.45;;;;;;;21.32;55.94;101335.41;5072992;28;20116;-78
2022/06/29 07:30:54;;;;;;;8.10;3.75;;;;;;;21.49;55.81;101336.09;5067122;28;20501;-77
2022/06/29 07:33:22;;;;;;;9.30;3.45;;;;;;;21.62;55.64;101344.16;5056691;28;20119;-78
2022/06/29 07:35:50;;;;;;;7.03;3.35;;;;;;;21.73;54.82;101338.91;5072591;28;20084;-79
2022/06/29 07:38:19;;;;;;;6.63;3.42;;;;;;;21.87;54.69;101336.09;5072653;28;20033;-80
2022/06/29 07:40:46;;;;;;;7.60;3.50;;;;;;;22.00;54.94;101338.81;5073404;28;20052;-79
2022/06/29 07:43:13;;;;;;;5.65;3.08;;;;;;;22.13;54.26;101340.63;5060106;28;20037;-79
2022/06/29 07:45:40;;;;;;;8.30;3.42;;;;;;;22.22;53.45;101329.22;5069930;28;20109;-79
2022/06/29 07:48:08;;;;;;;7.18;3.55;;;;;;;22.28;53.30;101334.13;5071580;28;20876;-77
2022/06/29 07:50:35;;;;;;;8.90;3.40;;;;;;;22.39;53.98;101335.19;5071738;28;20071;-78
2022/06/29 07:53:02;;;;;;;8.40;3.55;;;;;;;22.52;52.89;101336.06;5071605;28;20037;-78
2022/06/29 07:55:30;;;;;;;6.88;3.88;;;;;;;22.57;53.32;101333.03;5071046;28;20041;-79
2022/06/29 07:57:57;;;;;;;6.88;3.60;;;;;;;22.69;53.56;101331.25;5070412;28;20079;-78
2022/06/29 08:00:27;;;;;;;11.93;4.82;;;;;;;22.79;53.15;101330.44;5052740;28;20042;-78
2022/06/29 08:02:55;;;;;;;8.13;3.88;;;;;;;22.95;53.27;101342.75;5066175;28;20048;-77
2022/06/29 08:05:24;;;;;;;10.38;4.30;;;;;;;23.09;53.05;101333.63;5053048;28;20058;-79
2022/06/29 08:07:52;;;;;;;7.97;3.92;;;;;;;23.28;52.90;101341.19;5062067;28;20514;-78
2022/06/29 08:10:19;;;;;;;6.72;3.53;;;;;;;23.46;52.41;101330.00;5072105;28;20091;-79
2022/06/29 08:12:47;;;;;;;8.20;2.92;;;;;;;23.70;51.46;101341.53;5072627;28;20095;-79
2022/06/29 08:15:17;;;;;;;5.97;2.55;;;;;;;23.97;51.56;101339.50;5072375;28;20547;-79
2022/06/29 08:17:48;;;;;;;5.18;2.30;;;;;;;24.31;49.93;101324.19;5069614;28;20131;-77
2022/06/29 08:20:15;;;;;;;4.72;2.15;;;;;;;24.59;49.09;101334.53;5071794;28;20045;-78
2022/06/29 08:22:43;;;;;;;5.03;2.25;;;;;;;24.77;48.45;101324.97;5066169;28;20107;-78
2022/06/29 08:25:11;;;;;;;3.45;2.00;;;;;;;24.87;46.81;101321.50;5065099;28;20479;-78
2022/06/29 08:27:39;;;;;;;14.60;2.47;;;;;;;24.89;46.87;101322.22;5073194;28;20041;-79
2022/06/29 08:30:13;;;;;;;4.80;2.00;;;;;;;24.99;47.38;101312.34;5072560;28;20049;-79
2022/06/29 08:32:42;;;;;;;7.13;2.33;;;;;;;25.08;46.40;101316.13;5057011;28;20076;-79
2022/06/29 08:35:11;;;;;;;11.25;2.25;;;;;;;25.19;46.92;101321.47;5061354;28;20095;-78
2022/06/29 08:37:39;;;;;;;12.68;2.72;;;;;;;25.34;47.23;101318.44;5060051;28;20061;-79
2022/06/29 08:40:15;;;;;;;9.52;2.60;;;;;;;25.49;46.65;101314.47;5057073;28;20072;-78
2022/06/29 08:42:45;;;;;;;10.32;2.10;;;;;;;25.54;45.76;101309.50;5052171;28;20113;-77
2022/06/29 08:45:14;;;;;;;7.00;2.17;;;;;;;25.54;45.81;101308.66;5052264;28;20067;-76
2022/06/29 08:47:42;;;;;;;5.38;2.20;;;;;;;25.55;46.07;101305.81;5055688;28;20119;-78
2022/06/29 08:50:12;;;;;;;9.52;2.00;;;;;;;25.54;44.91;101306.81;5071258;28;20053;-78
2022/06/29 08:52:43;;;;;;;6.07;2.10;;;;;;;25.46;45.94;101303.91;5071679;28;20041;-78
2022/06/29 08:55:13;;;;;;;5.28;2.20;;;;;;;25.41;46.86;101307.03;5072245;28;20037;-78
2022/06/29 08:57:44;;;;;;;6.80;1.75;;;;;;;25.38;46.48;101307.28;5063234;28;20045;-78
2022/06/29 09:00:12;;;;;;;8.50;1.95;;;;;;;25.47;45.67;101308.34;5071624;28;20045;-78
2022/06/29 09:02:40;;;;;;;3.97;1.73;;;;;;;25.59;44.64;101306.41;5061119;28;20048;-77
2022/06/29 09:05:09;;;;;;;3.42;1.60;;;;;;;25.71;44.79;101302.63;5061299;28;20060;-78
2022/06/29 09:07:36;;;;;;;5.93;1.80;;;;;;;25.85;45.26;101305.97;5073020;28;20053;-77
2022/06/29 09:10:30;;;;;;;7.88;2.03;;;;;;;26.05;45.39;101313.16;5071174;28;20041;-79
2022/06/29 09:13:01;;;;;;;9.27;2.50;;;;;;;26.21;45.60;101311.81;5056950;28;20045;-78
2022/06/29 09:15:36;;;;;;;5.85;2.33;;;;;;;26.40;45.98;101307.47;5063630;28;20516;-77
2022/06/29 09:18:22;;;;;;;5.13;2.08;;;;;;;26.55;45.62;101307.94;5072574;28;20072;-78
2022/06/29 09:20:57;;;;;;;8.43;2.25;;;;;;;26.73;45.54;101303.53;5069805;28;20044;-79
2022/06/29 09:23:26;;;;;;;5.95;2.35;;;;;;;26.86;45.12;101315.94;5070956;28;20033;-77
2022/06/29 09:25:54;;;;;;;6.70;2.45;;;;;;;26.97;44.42;101307.66;5072055;28;20120;-78
2022/06/29 09:28:31;;;;;;;5.82;2.80;;;;;;;27.01;43.27;101308.25;5071892;28;20091;-78
2022/06/29 09:30:59;;;;;;;5.43;2.60;;;;;;;26.97;43.88;101311.25;5070398;28;20041;-78
2022/06/29 09:33:32;;;;;;;7.75;2.80;;;;;;;26.99;44.49;101312.97;5067379;28;20060;-78
2022/06/29 09:36:20;;;;;;;6.47;2.30;;;;;;;27.06;44.42;101319.50;5071757;28;20095;-78
2022/06/29 09:38:47;;;;;;;4.75;2.30;;;;;;;27.05;43.58;101313.25;5070980;28;20033;-78
2022/06/29 09:41:15;;;;;;;4.88;2.40;;;;;;;27.10;44.15;101313.66;5070559;28;20045;-78
2022/06/29 09:43:47;;;;;;;8.48;2.28;;;;;;;27.12;43.88;101314.38;5065606;28;20048;-78
2022/06/29 09:46:17;;;;;;;4.65;1.77;;;;;;;27.14;43.76;101314.22;5069750;28;20484;-78
2022/06/29 09:48:44;;;;;;;2.80;1.70;;;;;;;27.17;43.76;101302.25;5069518;28;20037;-79
2022/06/29 09:51:30;;;;;;;4.88;1.63;;;;;;;27.13;43.27;101298.97;5070883;28;20049;-78
2022/06/29 09:54:06;;;;;;;8.43;2.10;;;;;;;27.10;42.51;101302.00;5070023;28;20119;-79
2022/06/29 09:56:40;;;;;;;11.07;2.40;;;;;;;27.07;43.13;101307.69;5070308;28;20496;-78
2022/06/29 09:59:13;;;;;;;8.18;2.15;;;;;;;27.10;43.11;101294.72;5073261;28;20559;-80
2022/06/29 10:04:28;;;;;;;4.55;1.83;;;;;;;27.22;44.48;101292.69;5073332;28;19924;-79
2022/06/29 10:06:55;;;;;;;8.05;2.28;;;;;;;27.35;43.97;101288.81;5073298;28;20072;-79
2022/06/29 10:09:23;;;;;;;7.13;2.17;;;;;;;27.48;42.53;101296.66;5061800;28;20044;-78
2022/06/29 10:15:27;;;;;;;7.90;2.10;;;;;;;27.54;43.12;101287.97;5075485;28;20033;-78
2022/06/29 10:18:41;;;;;;;4.25;2.03;;;;;;;27.68;41.72;101286.63;5074700;28;20041;-78
2022/06/29 10:21:23;;;;;;;6.18;1.90;;;;;;;27.71;41.07;101289.06;5069249;28;20120;-78
2022/06/29 10:23:57;;;;;;;5.35;1.80;;;;;;;27.71;41.31;101289.88;5054525;28;20091;-76
2022/06/29 10:26:27;;;;;;;6.47;1.70;;;;;;;27.82;39.95;101288.00;5053667;28;20112;-76
2022/06/29 10:28:56;;;;;;;7.38;1.70;;;;;;;27.94;40.96;101280.53;5071941;28;20037;-76
2022/06/29 10:31:53;;;;;;;4.75;1.88;;;;;;;27.98;40.33;101281.94;5074635;28;20156;-75
2022/06/29 10:37:04;;;;;;;2.30;1.30;;;;;;;28.12;40.25;101280.59;5073248;28;20045;-77
2022/06/29 10:39:34;;;;;;;2.50;1.30;;;;;;;28.12;38.50;101276.06;5072542;28;20095;-77
2022/06/29 10:44:58;;;;;;;6.45;1.40;;;;;;;28.24;37.07;101273.97;5054177;28;20045;-77
2022/06/29 10:47:25;;;;;;;5.78;1.42;;;;;;;28.36;36.90;101270.06;5069407;28;20045;-77
2022/06/29 10:50:21;;;;;;;6.03;1.08;;;;;;;28.51;35.52;101274.94;5073085;28;20045;-77
2022/06/29 10:52:56;;;;;;;5.60;1.00;;;;;;;28.66;35.18;101265.25;5072738;28;20492;-76
2022/06/29 10:55:28;;;;;;;4.95;1.20;;;;;;;28.87;34.77;101271.38;5074126;28;20884;-76
2022/06/29 10:57:58;;;;;;;3.53;1.13;;;;;;;29.04;35.70;101262.38;5073320;28;20037;-76
2022/06/29 11:00:29;;;;;;;4.55;1.08;;;;;;;29.23;34.70;101264.03;5073657;28;20103;-76
2022/06/29 11:03:08;;;;;;;4.32;0.93;;;;;;;29.31;32.80;101257.81;5074069;28;20150;-75
2022/06/29 11:12:01;;;;;;;2.33;1.00;;;;;;;29.32;33.31;101253.22;5073914;28;20047;-75
2022/06/29 11:14:00;;;;;;;1.90;1.05;;;;;;;29.19;34.12;101249.09;5073047;28;20102;-77
2022/06/29 11:16:34;;;;;;;1.80;0.98;;;;;;;29.27;34.31;101242.84;5060081;28;20068;-78
2022/06/29 11:19:03;;;;;;;4.95;1.10;;;;;;;29.37;33.73;101243.63;5073106;28;20052;-78
2022/06/29 11:21:32;;;;;;;2.78;1.30;;;;;;;29.39;33.88;101238.88;5071496;28;20045;-78
2022/06/29 11:24:03;;;;;;;2.28;1.00;;;;;;;29.47;34.05;101242.66;5064027;28;20060;-77
2022/06/29 11:26:33;;;;;;;3.97;0.90;;;;;;;29.56;34.72;101237.09;5071362;28;20041;-77
2022/06/29 11:29:02;;;;;;;2.45;1.20;;;;;;;29.69;33.64;101238.53;5065639;28;20041;-77
2022/06/29 11:31:30;;;;;;;3.70;1.00;;;;;;;29.78;34.57;101229.41;5072074;28;20037;-77
2022/06/29 11:33:57;;;;;;;4.57;1.10;;;;;;;29.89;33.77;101231.81;5071664;28;20102;-79
2022/06/29 11:36:28;;;;;;;5.00;1.02;;;;;;;29.96;31.97;101229.34;5069476;28;20161;-77
2022/06/29 11:39:04;;;;;;;2.58;0.90;;;;;;;29.99;31.45;101215.38;5071492;28;20167;-77
2022/06/29 11:44:30;;;;;;;3.28;1.00;;;;;;;29.99;30.24;101212.66;5071309;28;20046;-79
2022/06/29 11:46:57;;;;;;;2.55;1.05;;;;;;;29.99;30.59;101207.25;5071573;28;20413;-78
2022/06/29 11:49:36;;;;;;;3.40;0.80;;;;;;;29.98;30.83;101204.69;5070945;28;20159;-77
2022/06/29 11:52:08;;;;;;;3.33;0.90;;;;;;;29.92;31.53;101217.03;5072610;28;20553;-78
2022/06/29 11:54:38;;;;;;;3.00;1.05;;;;;;;29.95;30.64;101202.31;5071871;28;20539;-77
2022/06/29 11:57:18;;;;;;;4.25;1.00;;;;;;;29.97;30.93;101205.72;5071961;28;20089;-78
2022/06/29 11:59:47;;;;;;;1.95;0.80;;;;;;;29.98;29.52;101199.25;5071140;28;20054;-77